Time;durP1;ratioP1;P1;durP2;ratioP2;P2;SDS_P1;SDS_P2;PMS_P1;PMS_P2;Temp;Humidity;BMP_temperature;BMP_pressure;BME280_temperature;BME280_humidity;BME280_pressure;Samples;Min_cycle;Max_cycle;Signal;HPM_P1;HPM_P2
2022/04/28 00:00:25;;;;;;;3.40;3.10;;;20.00;57.50;;;;;;5031680;28;20183;-71
2022/04/28 00:02:53;;;;;;;3.47;3.13;;;20.00;57.50;;;;;;5031319;28;20215;-71
2022/04/28 00:05:20;;;;;;;2.60;2.40;;;20.00;57.50;;;;;;4998785;28;20179;-71
2022/04/28 00:07:47;;;;;;;2.17;1.85;;;20.00;57.50;;;;;;5031045;28;20203;-70
2022/04/28 00:10:13;;;;;;;2.38;2.17;;;20.00;57.50;;;;;;4998308;28;20210;-71
2022/04/28 00:12:39;;;;;;;2.25;2.05;;;20.00;57.50;;;;;;5014789;28;20232;-71
2022/04/28 00:15:06;;;;;;;3.97;2.33;;;20.00;57.50;;;;;;5015136;28;20187;-71
2022/04/28 00:17:32;;;;;;;1.90;1.80;;;20.00;57.50;;;;;;5014867;28;20345;-71
2022/04/28 00:19:58;;;;;;;2.53;2.25;;;20.00;57.50;;;;;;5014799;28;20277;-71
2022/04/28 00:22:25;;;;;;;2.30;2.10;;;20.00;57.50;;;;;;5031300;28;20265;-71
2022/04/28 00:24:51;;;;;;;2.47;2.22;;;20.00;57.50;;;;;;5014885;28;20206;-71
2022/04/28 00:27:18;;;;;;;2.20;2.08;;;20.00;57.50;;;;;;5014843;28;20584;-71
2022/04/28 00:29:44;;;;;;;2.28;2.03;;;20.00;57.50;;;;;;5030876;28;20184;-71
2022/04/28 00:32:10;;;;;;;2.30;2.10;;;19.90;57.40;;;;;;5014497;28;20194;-71
2022/04/28 00:34:36;;;;;;;3.17;2.70;;;19.90;57.40;;;;;;5014508;28;20195;-71
2022/04/28 00:37:02;;;;;;;3.00;2.80;;;19.90;57.40;;;;;;5014468;28;20325;-70
2022/04/28 00:39:28;;;;;;;2.72;2.53;;;20.00;57.50;;;;;;5014640;28;20183;-72
2022/04/28 00:41:54;;;;;;;3.67;3.38;;;20.00;57.40;;;;;;5014388;28;20230;-72
2022/04/28 00:44:20;;;;;;;3.58;3.28;;;20.00;57.40;;;;;;5014547;28;20184;-71
2022/04/28 00:46:46;;;;;;;3.70;3.40;;;19.90;57.30;;;;;;5031118;28;20175;-72
2022/04/28 00:51:59;;;;;;;2.80;2.58;;;20.00;57.40;;;;;;5014425;28;20775;-71
2022/04/28 00:54:28;;;;;;;3.63;2.20;;;20.00;57.40;;;;;;5014344;28;20179;-71
2022/04/28 00:56:58;;;;;;;2.20;1.98;;;19.90;57.20;;;;;;5031858;28;20182;-69
2022/04/28 00:59:27;;;;;;;2.42;2.22;;;19.90;57.30;;;;;;5030932;28;20188;-71
2022/04/28 01:01:53;;;;;;;2.33;2.13;;;19.90;57.30;;;;;;5014289;28;20207;-71
2022/04/28 01:04:19;;;;;;;2.42;2.22;;;19.90;57.30;;;;;;5014520;28;20179;-71
2022/04/28 01:06:45;;;;;;;2.38;2.17;;;19.90;57.30;;;;;;5016292;28;20191;-71
2022/04/28 01:09:11;;;;;;;2.35;2.15;;;19.90;57.30;;;;;;5017693;28;20202;-70
2022/04/28 01:11:38;;;;;;;3.10;2.30;;;19.90;57.30;;;;;;5017900;28;20245;-71
2022/04/28 01:14:13;;;;;;;2.45;2.25;;;19.90;57.30;;;;;;5019295;28;20190;-69
2022/04/28 01:16:45;;;;;;;3.42;3.13;;;19.90;57.30;;;;;;5033557;28;20199;-69
2022/04/28 01:19:11;;;;;;;3.63;3.33;;;19.90;57.30;;;;;;5017627;28;20713;-69
2022/04/28 01:21:37;;;;;;;3.55;3.25;;;19.90;57.30;;;;;;5034159;28;20211;-69
2022/04/28 01:24:12;;;;;;;3.45;3.15;;;20.00;57.40;;;;;;5034377;28;20175;-69
2022/04/28 01:26:39;;;;;;;3.92;3.45;;;20.00;57.30;;;;;;5017793;28;20209;-68
2022/04/28 01:29:05;;;;;;;3.67;3.38;;;19.90;57.20;;;;;;5017449;28;20246;-66
2022/04/28 01:31:31;;;;;;;4.22;3.83;;;19.90;57.30;;;;;;5017788;28;20215;-68
2022/04/28 01:33:59;;;;;;;3.60;2.80;;;19.90;57.20;;;;;;5034074;28;20183;-69
2022/04/28 01:36:27;;;;;;;2.65;2.45;;;19.90;57.20;;;;;;5017628;28;20187;-69
2022/04/28 01:38:54;;;;;;;2.45;2.33;;;19.90;57.10;;;;;;5017551;28;20235;-69
2022/04/28 01:41:20;;;;;;;2.47;2.28;;;19.90;57.30;;;;;;5017174;28;20194;-68
2022/04/28 01:43:45;;;;;;;2.30;2.10;;;19.90;57.20;;;;;;5017468;28;20187;-69
2022/04/28 01:46:13;;;;;;;2.50;2.22;;;19.90;57.80;;;;;;5017430;28;20179;-69
2022/04/28 01:49:06;;;;;;;3.22;2.33;;;19.90;57.30;;;;;;5017403;28;20233;-68
2022/04/28 01:55:13;;;;;;;3.65;2.72;;;19.90;57.20;;;;;;4993469;28;20185;-69
2022/04/28 01:57:59;;;;;;;2.50;2.30;;;19.90;57.20;;;;;;4993286;28;20224;-69
2022/04/28 02:00:45;;;;;;;2.50;2.30;;;19.90;57.20;;;;;;5017472;28;20198;-69
2022/04/28 02:03:13;;;;;;;2.58;2.38;;;19.90;57.20;;;;;;5001065;28;20218;-69
2022/04/28 02:05:39;;;;;;;2.40;2.20;;;19.90;57.20;;;;;;5033580;28;20214;-69
2022/04/28 02:08:07;;;;;;;4.65;4.25;;;19.90;57.20;;;;;;5017379;28;20203;-69
2022/04/28 02:10:33;;;;;;;3.50;3.22;;;19.90;57.20;;;;;;5017048;28;20191;-69
2022/04/28 02:13:01;;;;;;;4.13;3.80;;;19.90;57.20;;;;;;5016984;28;20179;-69
2022/04/28 02:15:33;;;;;;;3.70;3.38;;;19.90;57.20;;;;;;5034442;28;20275;-69
2022/04/28 02:18:17;;;;;;;4.65;3.13;;;19.90;57.20;;;;;;5028254;28;20226;-69
2022/04/28 02:20:43;;;;;;;2.70;2.50;;;19.90;57.10;;;;;;5016424;28;20180;-69
2022/04/28 02:23:08;;;;;;;2.85;2.65;;;19.90;57.10;;;;;;5000023;28;20222;-69
2022/04/28 02:25:37;;;;;;;2.40;2.20;;;19.90;57.10;;;;;;5024773;28;20187;-67
2022/04/28 02:28:03;;;;;;;2.30;2.10;;;19.90;57.20;;;;;;5016690;28;20223;-69
2022/04/28 02:30:29;;;;;;;2.30;2.10;;;19.90;57.20;;;;;;5000423;28;20183;-68
2022/04/28 02:33:09;;;;;;;2.65;2.45;;;19.90;57.20;;;;;;5000547;28;20189;-69
2022/04/28 02:35:45;;;;;;;2.60;2.17;;;19.90;57.20;;;;;;5001854;28;20198;-67
2022/04/28 02:38:11;;;;;;;2.10;2.00;;;19.90;57.20;;;;;;5016302;28;20207;-69
2022/04/28 02:40:37;;;;;;;2.45;2.25;;;19.90;57.20;;;;;;4999749;28;20187;-69
2022/04/28 02:43:06;;;;;;;2.53;2.33;;;19.90;57.20;;;;;;4997048;28;20214;-69
2022/04/28 02:45:32;;;;;;;3.22;2.92;;;19.90;57.10;;;;;;4980442;28;20727;-69
2022/04/28 02:47:59;;;;;;;3.22;3.03;;;19.90;57.10;;;;;;5012907;28;20223;-68
2022/04/28 02:50:26;;;;;;;3.50;3.20;;;19.90;57.10;;;;;;4996585;28;20184;-68
2022/04/28 02:52:53;;;;;;;3.65;3.40;;;19.90;57.10;;;;;;4980502;28;20187;-69
2022/04/28 02:55:20;;;;;;;2.85;2.63;;;19.90;57.00;;;;;;4980272;28;20188;-68
2022/04/28 02:57:46;;;;;;;3.55;3.30;;;19.90;57.10;;;;;;4996627;28;20244;-68
2022/04/28 03:00:12;;;;;;;3.20;2.95;;;19.90;57.10;;;;;;4980326;28;20177;-69
2022/04/28 03:02:55;;;;;;;2.20;2.00;;;19.90;56.90;;;;;;5029635;28;20213;-68
2022/04/28 03:05:21;;;;;;;2.13;1.98;;;19.90;57.00;;;;;;5019480;28;20178;-68
2022/04/28 03:13:04;;;;;;;2.35;2.17;;;19.90;57.10;;;;;;5035752;28;20190;-69
2022/04/28 03:15:32;;;;;;;2.20;2.00;;;19.80;57.00;;;;;;5019239;28;20194;-69
2022/04/28 03:17:58;;;;;;;2.35;2.22;;;19.90;57.10;;;;;;5019251;28;20579;-69
2022/04/28 03:20:24;;;;;;;2.45;2.28;;;19.90;57.10;;;;;;5019171;28;20190;-69
2022/04/28 03:22:49;;;;;;;2.50;2.30;;;19.90;57.00;;;;;;5053078;28;20327;-68
2022/04/28 03:25:16;;;;;;;2.67;2.47;;;19.90;57.00;;;;;;5035576;28;20234;-69
2022/04/28 03:27:43;;;;;;;2.95;2.75;;;19.80;57.00;;;;;;5051723;28;20210;-69
2022/04/28 03:30:10;;;;;;;2.72;2.53;;;19.90;57.00;;;;;;5034233;28;20187;-68
2022/04/28 03:32:55;;;;;;;2.75;2.55;;;19.80;57.00;;;;;;5052917;28;20201;-69
2022/04/28 03:35:21;;;;;;;2.72;2.53;;;19.80;56.90;;;;;;5052011;28;20212;-69
2022/04/28 03:37:47;;;;;;;3.30;2.58;;;19.80;56.90;;;;;;5018479;28;20210;-69
2022/04/28 03:40:14;;;;;;;2.00;1.90;;;19.80;56.90;;;;;;5051369;28;20190;-69
2022/04/28 03:42:40;;;;;;;2.05;1.95;;;19.80;57.00;;;;;;5035173;28;20297;-69
2022/04/28 03:45:07;;;;;;;1.80;1.70;;;19.80;56.90;;;;;;5051573;28;20182;-68
2022/04/28 03:47:38;;;;;;;2.22;1.98;;;19.80;56.90;;;;;;5019341;28;20256;-68
2022/04/28 03:50:06;;;;;;;1.80;1.67;;;19.90;57.00;;;;;;5018191;28;20186;-68
2022/04/28 03:52:32;;;;;;;2.05;1.80;;;19.90;57.00;;;;;;5035069;28;20261;-68
2022/04/28 03:54:58;;;;;;;3.08;1.88;;;19.80;56.90;;;;;;5035012;28;20676;-68
2022/04/28 03:57:26;;;;;;;1.88;1.77;;;19.80;56.90;;;;;;5018331;28;20218;-68
2022/04/28 03:59:52;;;;;;;2.00;1.80;;;19.90;57.00;;;;;;5034583;28;20182;-69
2022/04/28 04:02:33;;;;;;;2.70;2.50;;;19.80;56.90;;;;;;5051745;28;20206;-68
2022/04/28 04:05:00;;;;;;;2.45;2.25;;;19.90;57.00;;;;;;5034962;28;20232;-69
2022/04/28 04:07:31;;;;;;;3.63;2.42;;;19.80;56.90;;;;;;5051133;28;20234;-69
2022/04/28 04:10:00;;;;;;;3.28;2.58;;;19.80;56.90;;;;;;5052513;28;20186;-68
2022/04/28 04:12:32;;;;;;;2.88;2.60;;;19.90;56.90;;;;;;5051272;28;20213;-68
2022/04/28 04:15:18;;;;;;;2.17;1.85;;;19.80;56.80;;;;;;4997777;28;20186;-67
2022/04/28 04:18:08;;;;;;;1.98;1.88;;;19.80;56.90;;;;;;5051048;28;20543;-69
2022/04/28 04:20:57;;;;;;;3.30;2.05;;;19.80;57.00;;;;;;5050925;28;20182;-69
2022/04/28 04:23:23;;;;;;;2.03;1.90;;;19.90;57.00;;;;;;5034369;28;20206;-67
2022/04/28 04:25:49;;;;;;;1.77;1.67;;;19.90;57.10;;;;;;5018110;28;20178;-69
2022/04/28 04:28:20;;;;;;;2.72;2.25;;;19.90;57.30;;;;;;5050998;28;20198;-66
2022/04/28 04:33:59;;;;;;;1.80;1.70;;;19.90;57.50;;;;;;5034363;28;20229;-68
2022/04/28 04:36:26;;;;;;;2.00;1.77;;;19.90;57.50;;;;;;5034289;28;20182;-69
2022/04/28 04:38:52;;;;;;;2.45;1.80;;;19.90;57.60;;;;;;5050833;28;20206;-69
2022/04/28 04:41:18;;;;;;;1.88;1.77;;;19.90;57.60;;;;;;5037182;28;20182;-69
2022/04/28 04:43:44;;;;;;;1.63;1.52;;;19.90;58.20;;;;;;5054968;28;20192;-69
2022/04/28 04:46:11;;;;;;;1.88;1.77;;;19.90;57.60;;;;;;5054908;28;20190;-68
2022/04/28 04:48:56;;;;;;;3.97;1.85;;;19.90;57.60;;;;;;5041077;28;20245;-68
2022/04/28 04:51:36;;;;;;;2.22;2.05;;;19.90;57.60;;;;;;5054667;28;20274;-70
2022/04/28 04:54:10;;;;;;;4.15;2.92;;;19.90;57.60;;;;;;5038308;28;20205;-69
2022/04/28 04:56:36;;;;;;;2.78;2.50;;;19.90;57.50;;;;;;5038093;28;20277;-69
2022/04/28 04:59:03;;;;;;;6.43;2.45;;;19.90;57.60;;;;;;5054792;28;20300;-67
2022/04/28 05:01:29;;;;;;;6.50;3.33;;;19.90;57.60;;;;;;5021715;28;20182;-69
2022/04/28 05:04:30;;;;;;;3.35;2.10;;;19.90;57.70;;;;;;4994242;28;20199;-68
2022/04/28 05:07:14;;;;;;;2.28;2.08;;;19.90;57.80;;;;;;5049853;28;20673;-69
2022/04/28 05:09:40;;;;;;;3.17;1.85;;;19.90;57.90;;;;;;5021454;28;20187;-70
2022/04/28 05:12:07;;;;;;;5.82;2.15;;;19.90;58.20;;;;;;5054710;28;20197;-69
2022/04/28 05:14:38;;;;;;;3.10;1.90;;;20.00;58.40;;;;;;5015403;28;20192;-70
2022/04/28 05:17:04;;;;;;;4.35;2.13;;;19.90;58.30;;;;;;4998590;28;20202;-69
2022/04/28 05:19:45;;;;;;;3.88;2.90;;;19.90;58.40;;;;;;5014888;28;20180;-69
2022/04/28 05:22:29;;;;;;;4.88;3.38;;;19.90;58.20;;;;;;5020598;28;20233;-69
2022/04/28 05:25:14;;;;;;;4.00;2.50;;;20.00;58.30;;;;;;5018932;28;20191;-70
2022/04/28 05:28:06;;;;;;;3.08;2.13;;;19.90;58.10;;;;;;5021370;28;20253;-70
2022/04/28 05:30:51;;;;;;;3.08;2.00;;;20.00;58.10;;;;;;5020368;28;20198;-70
2022/04/28 05:33:43;;;;;;;4.13;2.30;;;20.00;58.10;;;;;;5017690;28;20542;-69
2022/04/28 05:36:30;;;;;;;2.88;2.13;;;20.00;58.00;;;;;;5010054;28;20206;-70
2022/04/28 05:39:00;;;;;;;2.88;2.30;;;20.00;57.90;;;;;;5017597;28;20206;-69
2022/04/28 05:41:28;;;;;;;4.50;2.08;;;20.00;57.90;;;;;;5017246;28;20270;-69
2022/04/28 05:46:41;;;;;;;3.80;2.13;;;20.00;57.80;;;;;;5017449;28;20183;-70
2022/04/28 05:49:08;;;;;;;2.58;1.88;;;20.00;57.80;;;;;;5034113;28;20299;-69
2022/04/28 05:51:34;;;;;;;2.45;1.75;;;20.00;57.70;;;;;;5032629;28;20175;-69
2022/04/28 05:54:01;;;;;;;2.00;1.80;;;20.00;57.70;;;;;;5017505;28;20175;-69
2022/04/28 05:56:28;;;;;;;5.80;1.92;;;20.00;57.70;;;;;;5017647;28;20187;-69
2022/04/28 05:58:59;;;;;;;2.63;1.55;;;20.00;57.60;;;;;;5057016;23;20235;-70
2022/04/28 06:01:43;;;;;;;2.05;1.85;;;20.10;57.60;;;;;;5019124;28;20214;-70
2022/04/28 06:04:13;;;;;;;3.33;2.05;;;20.10;57.60;;;;;;5017378;28;20233;-71
2022/04/28 06:06:39;;;;;;;3.40;2.67;;;20.10;57.70;;;;;;5017087;28;20191;-70
2022/04/28 06:09:14;;;;;;;3.47;2.20;;;20.10;57.60;;;;;;5031791;28;20216;-69
2022/04/28 06:11:41;;;;;;;2.67;2.42;;;20.00;57.60;;;;;;4998712;28;20213;-70
2022/04/28 06:14:07;;;;;;;4.30;2.75;;;20.10;57.60;;;;;;5016750;28;20631;-70
2022/04/28 06:16:45;;;;;;;3.15;1.85;;;20.10;57.60;;;;;;5034903;28;20194;-70
2022/04/28 06:19:25;;;;;;;4.60;1.98;;;20.10;57.50;;;;;;5018551;28;20208;-70
2022/04/28 06:22:00;;;;;;;3.25;2.05;;;20.10;57.50;;;;;;5014377;28;20222;-70
2022/04/28 06:24:26;;;;;;;4.85;1.88;;;20.00;57.30;;;;;;5013206;28;20180;-70
2022/04/28 06:26:54;;;;;;;3.25;1.70;;;20.10;57.30;;;;;;5012961;28;20184;-70
2022/04/28 06:29:20;;;;;;;2.13;1.63;;;20.00;57.20;;;;;;5013106;28;20238;-70
2022/04/28 06:31:46;;;;;;;1.95;1.73;;;20.10;57.30;;;;;;5012675;28;20192;-70
2022/04/28 06:34:41;;;;;;;3.70;1.90;;;20.10;57.30;;;;;;5005318;28;20234;-70
2022/04/28 06:37:07;;;;;;;3.33;2.13;;;20.10;57.20;;;;;;5013167;28;20202;-70
2022/04/28 06:39:34;;;;;;;2.67;2.20;;;20.10;57.20;;;;;;4981926;28;20208;-70
2022/04/28 06:42:01;;;;;;;2.83;2.05;;;20.10;57.10;;;;;;5032826;28;20222;-70
2022/04/28 06:44:47;;;;;;;2.10;1.90;;;20.10;57.20;;;;;;5019161;28;20188;-70
2022/04/28 06:47:33;;;;;;;2.10;1.90;;;20.20;57.20;;;;;;5033813;28;20210;-70
2022/04/28 06:50:31;;;;;;;2.88;2.15;;;20.20;57.10;;;;;;4989509;28;20194;-70
2022/04/28 06:53:15;;;;;;;3.28;1.77;;;20.20;57.10;;;;;;5034270;28;20186;-70
2022/04/28 06:55:45;;;;;;;2.97;1.90;;;20.20;57.00;;;;;;5000686;28;20191;-70
2022/04/28 06:58:11;;;;;;;2.28;1.92;;;20.20;57.10;;;;;;5015949;28;20210;-70
2022/04/28 07:00:40;;;;;;;2.20;2.00;;;20.20;57.10;;;;;;5015702;28;20183;-70
2022/04/28 07:03:07;;;;;;;2.20;2.00;;;20.30;57.10;;;;;;5015962;28;20219;-70
2022/04/28 07:05:33;;;;;;;3.58;2.00;;;20.30;57.00;;;;;;5016002;28;20190;-70
2022/04/28 07:08:01;;;;;;;4.25;2.10;;;20.30;57.00;;;;;;5016020;28;20229;-70
2022/04/28 07:10:33;;;;;;;2.22;2.03;;;20.30;57.00;;;;;;4999656;28;20555;-70
2022/04/28 07:12:59;;;;;;;2.70;2.00;;;20.30;56.90;;;;;;5015888;28;20202;-70
2022/04/28 07:15:43;;;;;;;2.50;2.17;;;20.40;57.00;;;;;;5023187;28;20569;-70
2022/04/28 07:18:45;;;;;;;2.20;2.10;;;20.30;56.90;;;;;;4953065;28;20229;-70
2022/04/28 07:21:11;;;;;;;2.10;1.92;;;20.40;57.00;;;;;;4986742;28;20203;-70
2022/04/28 07:23:37;;;;;;;2.13;1.80;;;20.40;57.00;;;;;;5015497;28;20215;-70
2022/04/28 07:26:03;;;;;;;2.10;1.90;;;20.40;57.10;;;;;;5015862;28;20171;-70
2022/04/28 07:28:29;;;;;;;2.05;1.60;;;20.40;57.00;;;;;;5033214;28;20202;-70
2022/04/28 07:31:18;;;;;;;2.10;1.73;;;20.50;57.00;;;;;;5032211;28;20664;-70
2022/04/28 07:34:04;;;;;;;2.58;1.80;;;20.50;56.90;;;;;;5017797;28;20198;-70
2022/04/28 07:36:48;;;;;;;2.20;1.90;;;20.50;56.80;;;;;;5018122;28;20230;-70
2022/04/28 07:39:43;;;;;;;3.42;1.50;;;20.50;56.80;;;;;;4961637;28;20242;-70
2022/04/28 07:42:16;;;;;;;2.17;1.98;;;20.50;57.00;;;;;;5000110;28;20297;-70
2022/04/28 07:44:45;;;;;;;4.15;2.28;;;20.50;57.00;;;;;;5015479;28;20180;-70
2022/04/28 07:47:11;;;;;;;2.42;1.92;;;20.50;57.10;;;;;;5015212;28;20190;-70
2022/04/28 07:49:47;;;;;;;2.50;2.00;;;20.50;57.10;;;;;;5014209;28;20241;-71
2022/04/28 07:52:13;;;;;;;1.70;1.60;;;20.50;57.10;;;;;;5013887;28;20190;-70
2022/04/28 07:54:41;;;;;;;1.98;1.88;;;20.50;57.10;;;;;;5031657;28;20214;-70
2022/04/28 07:57:07;;;;;;;2.28;2.08;;;20.50;57.10;;;;;;5031681;28;20191;-70
2022/04/28 07:59:35;;;;;;;2.15;1.95;;;20.50;57.10;;;;;;5030915;28;20214;-70
2022/04/28 08:02:14;;;;;;;2.42;2.22;;;20.50;57.10;;;;;;5016538;28;20199;-70
2022/04/28 08:04:43;;;;;;;2.47;1.80;;;20.60;57.10;;;;;;5014874;28;20186;-70
2022/04/28 08:07:09;;;;;;;2.10;1.95;;;20.60;57.10;;;;;;5031489;28;20187;-71
2022/04/28 08:09:37;;;;;;;2.38;2.03;;;20.60;57.10;;;;;;4998560;28;20737;-70
2022/04/28 08:12:05;;;;;;;3.15;2.15;;;20.60;56.90;;;;;;4998637;28;20659;-70
2022/04/28 08:14:32;;;;;;;2.80;1.75;;;20.60;56.80;;;;;;5000114;28;20640;-70
2022/04/28 08:16:59;;;;;;;4.80;1.88;;;20.70;57.00;;;;;;5011544;28;20188;-70
2022/04/28 08:19:25;;;;;;;2.67;1.70;;;20.60;56.80;;;;;;4995080;28;20213;-70
2022/04/28 08:22:02;;;;;;;2.92;1.63;;;20.60;56.90;;;;;;4982867;28;20298;-70
2022/04/28 08:24:30;;;;;;;3.50;1.70;;;20.60;56.90;;;;;;5014596;28;20179;-70
2022/04/28 08:26:56;;;;;;;1.90;1.80;;;20.60;56.90;;;;;;5013023;28;20187;-70
2022/04/28 08:29:23;;;;;;;2.42;2.08;;;20.60;56.90;;;;;;5031147;28;20279;-70
2022/04/28 08:31:54;;;;;;;2.90;1.90;;;20.60;56.80;;;;;;4998926;28;20254;-70
2022/04/28 08:34:22;;;;;;;2.83;2.08;;;20.70;56.90;;;;;;4998180;28;20194;-71
2022/04/28 08:36:50;;;;;;;2.75;2.00;;;20.60;56.80;;;;;;5014613;28;20195;-70
2022/04/28 08:39:19;;;;;;;2.22;2.05;;;20.60;56.80;;;;;;5015256;28;20257;-70
2022/04/28 08:41:45;;;;;;;2.13;1.90;;;20.70;56.90;;;;;;5013870;28;20211;-70
2022/04/28 08:44:20;;;;;;;2.13;1.42;;;20.70;57.40;;;;;;5015714;28;20167;-70
2022/04/28 08:46:51;;;;;;;2.20;1.88;;;20.70;56.90;;;;;;5014235;28;20175;-70
2022/04/28 08:49:24;;;;;;;2.60;1.90;;;20.70;56.60;;;;;;5014780;28;20198;-70
2022/04/28 08:52:06;;;;;;;1.88;1.77;;;20.70;56.60;;;;;;5014426;28;20662;-70
2022/04/28 08:54:37;;;;;;;1.98;1.70;;;20.70;56.50;;;;;;4997917;28;20202;-70
2022/04/28 08:57:04;;;;;;;1.83;1.70;;;20.70;56.60;;;;;;5031933;28;20171;-70
2022/04/28 08:59:29;;;;;;;1.80;1.70;;;20.70;56.50;;;;;;4997470;28;20241;-71
2022/04/28 09:01:55;;;;;;;1.60;1.50;;;20.70;57.20;;;;;;5031678;28;20214;-70
2022/04/28 09:04:47;;;;;;;2.00;1.80;;;20.70;56.60;;;;;;5017972;28;20186;-70
2022/04/28 09:07:43;;;;;;;2.35;1.98;;;20.70;56.90;;;;;;5025838;28;20199;-70
2022/04/28 09:10:32;;;;;;;1.88;1.77;;;20.60;56.50;;;;;;5020135;28;20238;-71
2022/04/28 09:16:04;;;;;;;2.28;1.70;;;20.60;56.60;;;;;;5013839;28;20654;-71
2022/04/28 09:18:31;;;;;;;2.50;1.63;;;20.50;56.40;;;;;;5013902;28;20278;-70
2022/04/28 09:20:57;;;;;;;2.30;1.90;;;20.50;56.40;;;;;;5030446;28;20261;-70
2022/04/28 09:23:23;;;;;;;2.10;1.83;;;20.50;56.40;;;;;;4997485;28;20217;-70
2022/04/28 09:25:52;;;;;;;2.05;1.77;;;20.50;56.30;;;;;;5010866;28;20219;-70
2022/04/28 09:28:19;;;;;;;2.00;1.80;;;20.50;56.40;;;;;;5007653;28;20581;-70
2022/04/28 09:30:51;;;;;;;2.42;1.75;;;20.50;56.40;;;;;;5017490;28;20183;-70
2022/04/28 09:33:38;;;;;;;1.70;1.60;;;20.50;56.40;;;;;;5020508;28;20195;-70
2022/04/28 09:36:19;;;;;;;2.22;1.85;;;20.50;56.30;;;;;;5017443;28;20180;-70
2022/04/28 09:38:56;;;;;;;3.72;2.28;;;20.50;56.20;;;;;;5029164;28;20222;-70
2022/04/28 09:44:12;;;;;;;2.50;2.30;;;20.50;55.60;;;;;;5017459;28;20202;-70
2022/04/28 09:46:44;;;;;;;2.30;2.10;;;20.50;55.50;;;;;;5017797;28;20184;-70
2022/04/28 09:49:17;;;;;;;2.03;1.83;;;20.50;55.30;;;;;;5017280;28;20210;-70
2022/04/28 09:52:09;;;;;;;2.45;2.10;;;20.50;55.30;;;;;;5033417;28;20199;-70
2022/04/28 09:55:17;;;;;;;3.10;2.50;;;20.50;55.50;;;;;;4962641;28;20335;-70
2022/04/28 09:58:12;;;;;;;3.63;2.70;;;20.50;55.20;;;;;;4944245;28;20352;-70
2022/04/28 10:00:38;;;;;;;2.55;2.35;;;20.50;55.40;;;;;;5009913;28;20195;-69
2022/04/28 10:03:09;;;;;;;2.63;2.30;;;20.50;55.50;;;;;;5016909;28;20207;-69
2022/04/28 10:05:38;;;;;;;3.58;2.53;;;20.50;55.20;;;;;;5017412;28;20215;-70
2022/04/28 10:08:24;;;;;;;3.50;2.40;;;20.50;55.10;;;;;;5034756;28;20214;-70
2022/04/28 10:10:56;;;;;;;2.50;2.20;;;20.50;55.30;;;;;;5026786;28;20191;-70
2022/04/28 10:13:22;;;;;;;2.40;2.20;;;20.50;55.10;;;;;;5018714;28;20187;-70
2022/04/28 10:15:59;;;;;;;3.20;2.40;;;20.50;54.80;;;;;;5017979;28;20171;-70
2022/04/28 10:18:41;;;;;;;3.13;2.42;;;20.50;55.00;;;;;;5016422;28;20207;-70
2022/04/28 10:21:14;;;;;;;2.90;2.33;;;20.50;54.80;;;;;;5018973;28;20287;-70
2022/04/28 10:32:56;;;;;;;2.83;2.53;;;20.50;54.80;;;;;;5013117;28;20666;-71
2022/04/28 10:35:40;;;;;;;2.92;2.63;;;20.50;54.80;;;;;;4996725;28;20191;-70
2022/04/28 10:38:19;;;;;;;3.15;2.53;;;20.50;54.70;;;;;;5012774;28;20207;-70
2022/04/28 10:41:03;;;;;;;2.70;2.50;;;20.50;54.80;;;;;;5015872;28;20183;-70
2022/04/28 10:43:31;;;;;;;2.80;2.35;;;20.40;55.00;;;;;;5032678;28;20238;-71
2022/04/28 10:46:01;;;;;;;3.15;2.28;;;20.40;55.00;;;;;;5013794;28;20278;-71
2022/04/28 10:48:31;;;;;;;3.35;2.67;;;20.50;54.80;;;;;;4996695;28;20235;-70
2022/04/28 10:51:22;;;;;;;3.13;2.83;;;20.50;54.60;;;;;;5025826;28;20249;-71
2022/04/28 10:54:21;;;;;;;3.47;2.72;;;20.50;54.40;;;;;;5008744;28;20275;-71
2022/04/28 10:56:56;;;;;;;2.65;2.42;;;20.50;54.40;;;;;;4998765;28;20200;-70
2022/04/28 10:59:40;;;;;;;2.63;2.42;;;20.50;54.40;;;;;;5021708;28;20221;-70
2022/04/28 11:02:10;;;;;;;3.67;2.47;;;20.50;54.50;;;;;;5005710;28;20262;-70
2022/04/28 11:04:38;;;;;;;3.33;2.78;;;20.50;54.40;;;;;;4999804;28;20229;-70
2022/04/28 11:07:16;;;;;;;3.63;2.63;;;20.50;55.10;;;;;;5031496;28;20238;-70
2022/04/28 11:09:50;;;;;;;2.90;2.70;;;20.50;54.50;;;;;;5015429;28;20686;-70
2022/04/28 11:12:18;;;;;;;3.92;2.80;;;20.50;54.70;;;;;;5015881;28;20191;-70
2022/04/28 11:15:02;;;;;;;3.08;2.53;;;20.40;54.40;;;;;;5021961;28;20184;-69
2022/04/28 11:17:31;;;;;;;2.88;2.67;;;20.50;54.40;;;;;;5030991;28;20203;-69
2022/04/28 11:20:04;;;;;;;3.10;2.80;;;20.40;54.20;;;;;;5026273;28;20209;-70
2022/04/28 11:22:32;;;;;;;3.40;2.72;;;20.50;54.20;;;;;;5027167;28;20198;-69
2022/04/28 11:24:59;;;;;;;4.13;2.50;;;20.40;54.80;;;;;;5022288;28;20186;-70
2022/04/28 11:27:39;;;;;;;4.75;2.80;;;20.50;54.40;;;;;;5001044;28;20247;-71
2022/04/28 11:30:15;;;;;;;3.25;2.80;;;20.50;54.40;;;;;;5015890;28;20180;-71
2022/04/28 11:33:00;;;;;;;2.95;2.70;;;20.40;54.30;;;;;;5015317;28;20191;-71
2022/04/28 11:35:35;;;;;;;3.38;2.90;;;20.50;54.00;;;;;;5009633;28;20219;-70
2022/04/28 11:38:01;;;;;;;5.00;2.47;;;20.50;54.00;;;;;;5013590;28;20211;-71
2022/04/28 11:40:29;;;;;;;4.05;2.97;;;20.50;54.10;;;;;;4998459;28;20191;-70
2022/04/28 11:43:00;;;;;;;3.70;2.83;;;20.40;53.90;;;;;;5007097;28;20215;-71
2022/04/28 11:45:30;;;;;;;3.58;2.90;;;20.40;54.00;;;;;;5016445;28;20187;-70
2022/04/28 11:47:57;;;;;;;4.75;3.00;;;20.40;54.60;;;;;;5015049;28;20202;-71
2022/04/28 11:50:30;;;;;;;5.07;3.17;;;20.50;53.90;;;;;;5031762;28;20171;-71
2022/04/28 11:53:09;;;;;;;2.90;2.70;;;20.50;53.80;;;;;;5032742;28;20183;-71
2022/04/28 11:55:38;;;;;;;3.30;2.78;;;20.50;53.80;;;;;;5015092;28;20177;-71
2022/04/28 11:58:06;;;;;;;4.32;2.80;;;20.50;53.90;;;;;;5039040;22;20215;-70
2022/04/28 12:00:43;;;;;;;3.53;2.78;;;20.50;53.90;;;;;;5014398;28;20214;-69
2022/04/28 12:03:09;;;;;;;5.20;2.67;;;20.50;54.40;;;;;;5014946;28;20289;-68
2022/04/28 12:05:36;;;;;;;3.50;2.97;;;20.50;54.10;;;;;;5015319;28;20180;-68
2022/04/28 12:08:04;;;;;;;3.40;3.10;;;20.50;54.20;;;;;;5015168;28;20176;-68
2022/04/28 12:16:18;;;;;;;3.95;2.80;;;20.50;53.80;;;;;;5026694;28;20179;-71
2022/04/28 12:21:32;;;;;;;3.83;2.83;;;20.50;53.80;;;;;;5031865;28;20218;-68
2022/04/28 12:24:00;;;;;;;5.00;2.80;;;20.50;53.90;;;;;;5031504;28;20199;-68
2022/04/28 12:26:32;;;;;;;3.80;2.90;;;20.50;54.00;;;;;;5032336;28;20205;-68
2022/04/28 12:29:09;;;;;;;3.25;2.65;;;20.50;53.80;;;;;;4998550;28;20225;-68
2022/04/28 12:31:35;;;;;;;3.20;2.90;;;20.50;53.60;;;;;;5011084;28;20175;-68
2022/04/28 12:34:22;;;;;;;3.35;2.75;;;20.50;53.60;;;;;;5023834;28;20212;-68
2022/04/28 12:37:00;;;;;;;3.20;2.92;;;20.50;53.60;;;;;;5027895;28;20210;-68
2022/04/28 12:39:26;;;;;;;3.47;2.95;;;20.50;53.40;;;;;;5011532;28;20204;-68
2022/04/28 12:41:53;;;;;;;3.67;2.67;;;20.50;53.30;;;;;;5010707;28;20250;-68
2022/04/28 12:44:22;;;;;;;2.85;2.65;;;20.50;53.90;;;;;;5013047;28;20196;-68
2022/04/28 12:46:49;;;;;;;3.58;2.88;;;20.50;54.10;;;;;;5014556;28;20574;-69
2022/04/28 12:49:17;;;;;;;3.50;2.88;;;20.50;54.40;;;;;;5030409;28;20210;-68
2022/04/28 12:51:48;;;;;;;3.25;2.97;;;20.40;53.70;;;;;;4996452;28;20198;-68
2022/04/28 12:54:22;;;;;;;3.53;2.70;;;20.50;53.90;;;;;;5032137;28;20174;-69
2022/04/28 12:57:04;;;;;;;3.70;2.80;;;20.50;54.00;;;;;;5030737;28;20190;-68
2022/04/28 12:59:37;;;;;;;3.30;2.90;;;20.50;54.10;;;;;;5013941;28;20222;-68
2022/04/28 13:02:05;;;;;;;2.78;2.58;;;20.50;54.20;;;;;;5000443;28;20285;-68
2022/04/28 13:04:36;;;;;;;3.47;2.67;;;20.40;53.90;;;;;;5018230;28;20187;-68
2022/04/28 13:07:04;;;;;;;2.80;2.55;;;20.40;53.60;;;;;;5018319;28;20190;-68
2022/04/28 13:09:30;;;;;;;3.35;2.63;;;20.50;53.70;;;;;;5001425;28;20304;-68
2022/04/28 13:11:56;;;;;;;4.15;2.60;;;20.50;53.90;;;;;;5007010;28;20180;-68
2022/04/28 13:14:23;;;;;;;5.13;2.70;;;20.50;53.60;;;;;;5012480;28;20194;-68
2022/04/28 13:16:52;;;;;;;3.28;2.85;;;20.50;53.50;;;;;;5016789;28;20184;-68
2022/04/28 13:19:19;;;;;;;3.10;2.80;;;20.50;53.20;;;;;;5014427;28;20204;-67
2022/04/28 13:21:45;;;;;;;5.03;2.78;;;20.50;53.30;;;;;;5018819;28;20199;-68
2022/04/28 13:24:12;;;;;;;3.80;3.15;;;20.50;53.40;;;;;;5031477;28;20184;-69
2022/04/28 13:26:38;;;;;;;3.00;2.70;;;20.50;53.60;;;;;;5017710;28;20183;-68
2022/04/28 13:29:04;;;;;;;3.22;2.92;;;20.50;53.60;;;;;;5001341;28;20207;-68
2022/04/28 13:31:30;;;;;;;3.10;2.80;;;20.50;53.20;;;;;;5001247;28;20187;-68
2022/04/28 13:33:58;;;;;;;2.97;2.60;;;20.50;53.10;;;;;;5034208;28;20210;-68
2022/04/28 13:36:24;;;;;;;3.03;2.70;;;20.50;53.60;;;;;;5034405;28;20214;-69
2022/04/28 13:38:50;;;;;;;3.25;2.83;;;20.50;53.70;;;;;;5017364;28;20215;-71
2022/04/28 13:41:16;;;;;;;3.45;2.97;;;20.50;53.40;;;;;;5017103;28;20254;-70
2022/04/28 13:43:43;;;;;;;3.55;2.80;;;20.50;53.10;;;;;;5033956;28;20196;-71
2022/04/28 13:46:14;;;;;;;3.33;3.03;;;20.50;52.90;;;;;;5030560;28;20219;-69
2022/04/28 13:48:41;;;;;;;3.55;3.22;;;20.50;53.00;;;;;;4984410;28;20222;-70
2022/04/28 13:51:07;;;;;;;3.40;3.03;;;20.50;53.20;;;;;;5016940;28;20611;-70